Fort Defiance, Virginia
Current Conditions -  °F | °C
As of 9:15 AM on Thursday 30 Oct 2014 (Local Time) from KSHD Reporting Station
Overcast Overcast  
Wind Chill: 38°   Ceiling: 4700
Heat Index: 38°   Visibility: 10mi
Dew Point: 35°   Wind: 0mph
Humidity: 90%   Direction: NA
Pressure: 30.11"   Gusts: NA
Location:  38.24°N, 78.97°W
Report Text: KSHD 301315Z AUTO 00000KT 10SM OVC047 03/02 A3011 RMK AO2 T00340019
Loading
Personal Weather Stations






























Interactive Weather Map
Tropical Storm Tracking
New forecast layout! Learn more

10-Day Weather Forecast

Advertisements
Track Severe Weather on mobile